sensor_id;sensor_type;location;lat;lon;timestamp;temperature;humidity
75430;DHT22;64127;51.488;5.462;2023-08-20T00:01:23;21.40;99.90
75430;DHT22;64127;51.488;5.462;2023-08-20T00:03:57;21.30;99.90
75430;DHT22;64127;51.488;5.462;2023-08-20T00:06:29;21.30;99.90
75430;DHT22;64127;51.488;5.462;2023-08-20T00:09:02;21.30;99.90
75430;DHT22;64127;51.488;5.462;2023-08-20T00:11:36;21.20;99.90
75430;DHT22;64127;51.488;5.462;2023-08-20T00:14:15;21.20;99.90
75430;DHT22;64127;51.488;5.462;2023-08-20T00:16:48;21.20;99.90
75430;DHT22;64127;51.488;5.462;2023-08-20T00:19:21;21.20;99.90
75430;DHT22;64127;51.488;5.462;2023-08-20T00:21:53;21.10;99.90
75430;DHT22;64127;51.488;5.462;2023-08-20T00:24:25;21.10;99.90
75430;DHT22;64127;51.488;5.462;2023-08-20T00:26:58;21.10;99.90
75430;DHT22;64127;51.488;5.462;2023-08-20T00:29:30;21.00;99.90
75430;DHT22;64127;51.488;5.462;2023-08-20T00:32:02;21.00;99.90
75430;DHT22;64127;51.488;5.462;2023-08-20T00:34:34;21.00;99.90
75430;DHT22;64127;51.488;5.462;2023-08-20T00:37:06;21.00;99.90
75430;DHT22;64127;51.488;5.462;2023-08-20T00:39:39;20.90;99.90
75430;DHT22;64127;51.488;5.462;2023-08-20T00:42:11;20.90;99.90
75430;DHT22;64127;51.488;5.462;2023-08-20T00:44:45;20.90;99.90
75430;DHT22;64127;51.488;5.462;2023-08-20T00:47:18;20.90;99.90
75430;DHT22;64127;51.488;5.462;2023-08-20T00:49:52;20.80;99.90
75430;DHT22;64127;51.488;5.462;2023-08-20T00:52:27;20.80;99.90
75430;DHT22;64127;51.488;5.462;2023-08-20T00:55:00;20.80;99.90
75430;DHT22;64127;51.488;5.462;2023-08-20T00:57:41;20.80;99.90
75430;DHT22;64127;51.488;5.462;2023-08-20T01:00:17;20.80;99.90
75430;DHT22;64127;51.488;5.462;2023-08-20T01:02:50;20.80;99.90
75430;DHT22;64127;51.488;5.462;2023-08-20T01:05:24;20.80;99.90
75430;DHT22;64127;51.488;5.462;2023-08-20T01:11:26;20.80;99.90
75430;DHT22;64127;51.488;5.462;2023-08-20T01:14:02;20.80;99.90
75430;DHT22;64127;51.488;5.462;2023-08-20T01:16:34;20.80;99.90
75430;DHT22;64127;51.488;5.462;2023-08-20T01:19:07;20.90;99.90
75430;DHT22;64127;51.488;5.462;2023-08-20T01:28:30;21.00;99.90
75430;DHT22;64127;51.488;5.462;2023-08-20T01:31:03;21.00;99.90
75430;DHT22;64127;51.488;5.462;2023-08-20T01:33:36;21.00;99.90
75430;DHT22;64127;51.488;5.462;2023-08-20T01:36:11;21.00;99.90
75430;DHT22;64127;51.488;5.462;2023-08-20T01:38:43;21.00;99.90
75430;DHT22;64127;51.488;5.462;2023-08-20T01:41:15;21.10;99.90
75430;DHT22;64127;51.488;5.462;2023-08-20T01:43:47;21.10;99.90
75430;DHT22;64127;51.488;5.462;2023-08-20T01:46:20;21.10;99.90
75430;DHT22;64127;51.488;5.462;2023-08-20T01:48:54;21.10;99.90
75430;DHT22;64127;51.488;5.462;2023-08-20T01:51:26;21.10;99.90
75430;DHT22;64127;51.488;5.462;2023-08-20T01:53:58;21.10;99.90
75430;DHT22;64127;51.488;5.462;2023-08-20T01:56:31;21.20;99.90
75430;DHT22;64127;51.488;5.462;2023-08-20T01:59:03;21.20;99.90
75430;DHT22;64127;51.488;5.462;2023-08-20T02:01:38;21.20;99.90
75430;DHT22;64127;51.488;5.462;2023-08-20T02:04:10;21.20;99.90
75430;DHT22;64127;51.488;5.462;2023-08-20T02:06:42;21.20;99.90
75430;DHT22;64127;51.488;5.462;2023-08-20T02:09:14;21.20;99.90
75430;DHT22;64127;51.488;5.462;2023-08-20T02:11:46;21.20;99.90
75430;DHT22;64127;51.488;5.462;2023-08-20T02:14:28;21.20;99.90
75430;DHT22;64127;51.488;5.462;2023-08-20T02:17:02;21.30;99.90
75430;DHT22;64127;51.488;5.462;2023-08-20T02:19:35;21.20;99.90
75430;DHT22;64127;51.488;5.462;2023-08-20T02:22:07;21.30;99.90
75430;DHT22;64127;51.488;5.462;2023-08-20T02:24:39;21.20;99.90
75430;DHT22;64127;51.488;5.462;2023-08-20T02:27:14;21.30;99.90
75430;DHT22;64127;51.488;5.462;2023-08-20T02:29:46;21.30;99.90
75430;DHT22;64127;51.488;5.462;2023-08-20T02:32:18;21.20;99.90
75430;DHT22;64127;51.488;5.462;2023-08-20T02:34:51;21.20;99.90
75430;DHT22;64127;51.488;5.462;2023-08-20T02:37:23;21.10;99.90
75430;DHT22;64127;51.488;5.462;2023-08-20T02:39:55;21.10;99.90
75430;DHT22;64127;51.488;5.462;2023-08-20T02:42:30;21.10;99.90
75430;DHT22;64127;51.488;5.462;2023-08-20T02:45:04;21.10;99.90
75430;DHT22;64127;51.488;5.462;2023-08-20T02:47:37;21.10;99.90
75430;DHT22;64127;51.488;5.462;2023-08-20T02:50:10;21.10;99.90
75430;DHT22;64127;51.488;5.462;2023-08-20T02:52:42;21.00;99.90
75430;DHT22;64127;51.488;5.462;2023-08-20T02:55:14;21.00;99.90
75430;DHT22;64127;51.488;5.462;2023-08-20T02:57:46;21.00;99.90
75430;DHT22;64127;51.488;5.462;2023-08-20T03:00:19;20.90;99.90
75430;DHT22;64127;51.488;5.462;2023-08-20T03:02:51;20.90;99.90
75430;DHT22;64127;51.488;5.462;2023-08-20T03:05:26;20.90;99.90
75430;DHT22;64127;51.488;5.462;2023-08-20T03:07:58;20.90;99.90
75430;DHT22;64127;51.488;5.462;2023-08-20T03:10:31;20.90;99.90
75430;DHT22;64127;51.488;5.462;2023-08-20T03:13:04;20.90;99.90
75430;DHT22;64127;51.488;5.462;2023-08-20T03:15:36;20.80;99.90
75430;DHT22;64127;51.488;5.462;2023-08-20T03:18:09;20.80;99.90
75430;DHT22;64127;51.488;5.462;2023-08-20T03:20:41;20.70;99.90
75430;DHT22;64127;51.488;5.462;2023-08-20T03:23:13;20.70;99.90
75430;DHT22;64127;51.488;5.462;2023-08-20T03:25:45;20.70;99.90
75430;DHT22;64127;51.488;5.462;2023-08-20T03:28:18;20.60;99.90
75430;DHT22;64127;51.488;5.462;2023-08-20T03:30:51;20.60;99.90
75430;DHT22;64127;51.488;5.462;2023-08-20T03:33:23;20.50;99.90
75430;DHT22;64127;51.488;5.462;2023-08-20T03:35:55;20.50;99.90
75430;DHT22;64127;51.488;5.462;2023-08-20T03:38:30;20.40;99.90
75430;DHT22;64127;51.488;5.462;2023-08-20T03:41:02;20.40;99.90
75430;DHT22;64127;51.488;5.462;2023-08-20T03:43:34;20.40;99.90
75430;DHT22;64127;51.488;5.462;2023-08-20T03:46:07;20.40;99.90
75430;DHT22;64127;51.488;5.462;2023-08-20T03:48:39;20.30;99.90
75430;DHT22;64127;51.488;5.462;2023-08-20T03:51:11;20.30;99.90
75430;DHT22;64127;51.488;5.462;2023-08-20T03:53:43;20.20;99.90
75430;DHT22;64127;51.488;5.462;2023-08-20T03:56:15;20.20;99.90
75430;DHT22;64127;51.488;5.462;2023-08-20T03:58:47;20.20;99.90
75430;DHT22;64127;51.488;5.462;2023-08-20T04:01:19;20.10;99.90
75430;DHT22;64127;51.488;5.462;2023-08-20T04:03:51;20.10;99.90
75430;DHT22;64127;51.488;5.462;2023-08-20T04:06:23;20.10;99.90
75430;DHT22;64127;51.488;5.462;2023-08-20T04:08:55;20.10;99.90
75430;DHT22;64127;51.488;5.462;2023-08-20T04:11:28;20.00;99.90
75430;DHT22;64127;51.488;5.462;2023-08-20T04:14:00;20.00;99.90
75430;DHT22;64127;51.488;5.462;2023-08-20T04:16:32;20.00;99.90
75430;DHT22;64127;51.488;5.462;2023-08-20T04:19:04;20.00;99.90
75430;DHT22;64127;51.488;5.462;2023-08-20T04:21:37;19.90;99.90
75430;DHT22;64127;51.488;5.462;2023-08-20T04:24:09;19.90;99.90
75430;DHT22;64127;51.488;5.462;2023-08-20T04:26:41;19.90;99.90
75430;DHT22;64127;51.488;5.462;2023-08-20T04:29:22;19.80;99.90
75430;DHT22;64127;51.488;5.462;2023-08-20T04:31:57;19.80;99.90
75430;DHT22;64127;51.488;5.462;2023-08-20T04:34:29;19.80;99.90
75430;DHT22;64127;51.488;5.462;2023-08-20T04:37:01;19.80;99.90
75430;DHT22;64127;51.488;5.462;2023-08-20T04:39:33;19.70;99.90
75430;DHT22;64127;51.488;5.462;2023-08-20T04:42:08;19.70;99.90
75430;DHT22;64127;51.488;5.462;2023-08-20T04:44:43;19.70;99.90
75430;DHT22;64127;51.488;5.462;2023-08-20T04:47:15;19.70;99.90
75430;DHT22;64127;51.488;5.462;2023-08-20T04:49:47;19.70;99.90
75430;DHT22;64127;51.488;5.462;2023-08-20T04:52:19;19.70;99.90
75430;DHT22;64127;51.488;5.462;2023-08-20T04:54:52;19.70;99.90
75430;DHT22;64127;51.488;5.462;2023-08-20T04:57:26;19.70;99.90
75430;DHT22;64127;51.488;5.462;2023-08-20T04:59:58;19.70;99.90
75430;DHT22;64127;51.488;5.462;2023-08-20T05:02:30;19.70;99.90
75430;DHT22;64127;51.488;5.462;2023-08-20T05:05:02;19.60;99.90
75430;DHT22;64127;51.488;5.462;2023-08-20T05:07:35;19.60;99.90
75430;DHT22;64127;51.488;5.462;2023-08-20T05:10:08;19.60;99.90
75430;DHT22;64127;51.488;5.462;2023-08-20T05:12:40;19.60;99.90
75430;DHT22;64127;51.488;5.462;2023-08-20T05:15:12;19.60;99.90
75430;DHT22;64127;51.488;5.462;2023-08-20T05:17:44;19.60;99.90
75430;DHT22;64127;51.488;5.462;2023-08-20T05:20:16;19.70;99.90
75430;DHT22;64127;51.488;5.462;2023-08-20T05:22:49;19.60;99.90
75430;DHT22;64127;51.488;5.462;2023-08-20T05:25:21;19.70;99.90
75430;DHT22;64127;51.488;5.462;2023-08-20T05:27:53;19.70;99.90
75430;DHT22;64127;51.488;5.462;2023-08-20T05:30:25;19.70;99.90
75430;DHT22;64127;51.488;5.462;2023-08-20T05:32:58;19.70;99.90
75430;DHT22;64127;51.488;5.462;2023-08-20T05:35:30;19.70;99.90
75430;DHT22;64127;51.488;5.462;2023-08-20T05:38:02;19.80;99.90
75430;DHT22;64127;51.488;5.462;2023-08-20T05:40:34;19.80;99.90
75430;DHT22;64127;51.488;5.462;2023-08-20T05:43:07;19.80;99.90
75430;DHT22;64127;51.488;5.462;2023-08-20T05:45:39;19.90;99.90
75430;DHT22;64127;51.488;5.462;2023-08-20T05:48:11;19.90;99.90
75430;DHT22;64127;51.488;5.462;2023-08-20T05:50:43;20.00;99.90
75430;DHT22;64127;51.488;5.462;2023-08-20T05:53:16;20.00;99.90
75430;DHT22;64127;51.488;5.462;2023-08-20T05:55:48;20.10;99.90
75430;DHT22;64127;51.488;5.462;2023-08-20T05:58:20;20.20;99.90
75430;DHT22;64127;51.488;5.462;2023-08-20T06:00:56;20.20;99.90
75430;DHT22;64127;51.488;5.462;2023-08-20T06:03:29;20.30;99.90
75430;DHT22;64127;51.488;5.462;2023-08-20T06:06:03;20.40;99.90
75430;DHT22;64127;51.488;5.462;2023-08-20T06:08:39;20.50;99.90
75430;DHT22;64127;51.488;5.462;2023-08-20T06:11:22;20.60;99.90
75430;DHT22;64127;51.488;5.462;2023-08-20T06:13:54;20.80;99.90
75430;DHT22;64127;51.488;5.462;2023-08-20T06:16:26;20.90;99.90
75430;DHT22;64127;51.488;5.462;2023-08-20T06:18:58;21.00;99.90
75430;DHT22;64127;51.488;5.462;2023-08-20T06:21:33;21.10;99.90
75430;DHT22;64127;51.488;5.462;2023-08-20T06:24:06;21.30;99.90
75430;DHT22;64127;51.488;5.462;2023-08-20T06:26:39;21.40;99.90
75430;DHT22;64127;51.488;5.462;2023-08-20T06:29:11;21.50;99.90
75430;DHT22;64127;51.488;5.462;2023-08-20T06:31:43;21.60;99.90
75430;DHT22;64127;51.488;5.462;2023-08-20T06:34:15;21.80;99.90
75430;DHT22;64127;51.488;5.462;2023-08-20T06:36:48;21.90;99.90
75430;DHT22;64127;51.488;5.462;2023-08-20T06:39:21;22.00;99.90
75430;DHT22;64127;51.488;5.462;2023-08-20T06:41:53;22.00;99.90
75430;DHT22;64127;51.488;5.462;2023-08-20T06:44:25;22.10;99.90
75430;DHT22;64127;51.488;5.462;2023-08-20T06:46:57;22.30;99.90
75430;DHT22;64127;51.488;5.462;2023-08-20T06:49:30;22.30;99.90
75430;DHT22;64127;51.488;5.462;2023-08-20T06:52:11;22.40;99.90
75430;DHT22;64127;51.488;5.462;2023-08-20T06:54:46;22.60;99.90
75430;DHT22;64127;51.488;5.462;2023-08-20T06:57:23;22.70;99.90
75430;DHT22;64127;51.488;5.462;2023-08-20T06:59:58;22.80;99.90
75430;DHT22;64127;51.488;5.462;2023-08-20T07:02:33;22.90;99.90
75430;DHT22;64127;51.488;5.462;2023-08-20T07:05:10;23.00;99.90
75430;DHT22;64127;51.488;5.462;2023-08-20T07:07:48;23.10;99.90
75430;DHT22;64127;51.488;5.462;2023-08-20T07:10:38;23.10;99.90
75430;DHT22;64127;51.488;5.462;2023-08-20T07:13:28;23.20;99.90
75430;DHT22;64127;51.488;5.462;2023-08-20T07:16:58;23.30;99.90
75430;DHT22;64127;51.488;5.462;2023-08-20T07:23:46;23.50;99.90
75430;DHT22;64127;51.488;5.462;2023-08-20T07:26:52;23.70;99.90
75430;DHT22;64127;51.488;5.462;2023-08-20T07:29:38;23.80;99.90
75430;DHT22;64127;51.488;5.462;2023-08-20T07:32:33;23.90;99.90
75430;DHT22;64127;51.488;5.462;2023-08-20T07:35:18;23.90;99.90
75430;DHT22;64127;51.488;5.462;2023-08-20T07:37:52;24.00;99.90
75430;DHT22;64127;51.488;5.462;2023-08-20T07:40:28;24.10;99.90
75430;DHT22;64127;51.488;5.462;2023-08-20T07:43:03;24.20;99.90
75430;DHT22;64127;51.488;5.462;2023-08-20T07:45:38;24.30;99.90
75430;DHT22;64127;51.488;5.462;2023-08-20T07:48:14;24.50;99.90
75430;DHT22;64127;51.488;5.462;2023-08-20T07:50:47;24.60;99.90
75430;DHT22;64127;51.488;5.462;2023-08-20T07:53:42;24.80;99.90
75430;DHT22;64127;51.488;5.462;2023-08-20T07:56:14;24.90;99.90
75430;DHT22;64127;51.488;5.462;2023-08-20T07:58:46;25.10;99.90
75430;DHT22;64127;51.488;5.462;2023-08-20T08:01:21;25.20;99.90
75430;DHT22;64127;51.488;5.462;2023-08-20T08:03:56;25.30;99.90
75430;DHT22;64127;51.488;5.462;2023-08-20T08:07:02;25.30;99.90
75430;DHT22;64127;51.488;5.462;2023-08-20T08:09:45;25.40;99.90
75430;DHT22;64127;51.488;5.462;2023-08-20T08:12:20;25.50;99.90
75430;DHT22;64127;51.488;5.462;2023-08-20T08:14:55;25.60;99.90
75430;DHT22;64127;51.488;5.462;2023-08-20T08:17:27;25.60;99.90
75430;DHT22;64127;51.488;5.462;2023-08-20T08:20:00;25.70;99.90
75430;DHT22;64127;51.488;5.462;2023-08-20T08:22:42;25.80;99.90
75430;DHT22;64127;51.488;5.462;2023-08-20T08:25:15;25.90;99.90
75430;DHT22;64127;51.488;5.462;2023-08-20T08:27:47;26.00;99.90
75430;DHT22;64127;51.488;5.462;2023-08-20T08:30:31;26.10;99.90
75430;DHT22;64127;51.488;5.462;2023-08-20T08:33:06;26.20;99.90
75430;DHT22;64127;51.488;5.462;2023-08-20T08:35:40;26.30;99.90
75430;DHT22;64127;51.488;5.462;2023-08-20T08:38:24;26.40;99.90
75430;DHT22;64127;51.488;5.462;2023-08-20T08:41:09;26.60;99.90
75430;DHT22;64127;51.488;5.462;2023-08-20T08:43:46;26.80;99.90
75430;DHT22;64127;51.488;5.462;2023-08-20T08:46:20;26.80;99.90
75430;DHT22;64127;51.488;5.462;2023-08-20T08:48:57;26.80;99.90
75430;DHT22;64127;51.488;5.462;2023-08-20T08:51:36;26.80;99.90
75430;DHT22;64127;51.488;5.462;2023-08-20T08:54:10;26.90;99.90
75430;DHT22;64127;51.488;5.462;2023-08-20T08:56:43;26.90;99.70
75430;DHT22;64127;51.488;5.462;2023-08-20T08:59:15;27.00;99.00
75430;DHT22;64127;51.488;5.462;2023-08-20T09:01:48;27.10;98.10
75430;DHT22;64127;51.488;5.462;2023-08-20T09:04:24;27.10;97.40
75430;DHT22;64127;51.488;5.462;2023-08-20T09:06:58;27.00;96.90
75430;DHT22;64127;51.488;5.462;2023-08-20T09:09:31;27.00;96.80
75430;DHT22;64127;51.488;5.462;2023-08-20T09:12:31;27.10;96.40
75430;DHT22;64127;51.488;5.462;2023-08-20T09:15:10;27.10;94.80
75430;DHT22;64127;51.488;5.462;2023-08-20T09:17:46;27.10;94.50
75430;DHT22;64127;51.488;5.462;2023-08-20T09:20:33;27.10;93.40
75430;DHT22;64127;51.488;5.462;2023-08-20T09:23:13;27.10;91.40
75430;DHT22;64127;51.488;5.462;2023-08-20T09:25:46;27.10;90.10
75430;DHT22;64127;51.488;5.462;2023-08-20T09:28:18;27.00;88.80
75430;DHT22;64127;51.488;5.462;2023-08-20T09:30:58;27.00;88.80
75430;DHT22;64127;51.488;5.462;2023-08-20T09:33:34;27.00;88.00
75430;DHT22;64127;51.488;5.462;2023-08-20T09:36:07;26.90;87.20
75430;DHT22;64127;51.488;5.462;2023-08-20T09:38:40;26.90;86.70
75430;DHT22;64127;51.488;5.462;2023-08-20T09:41:14;27.00;85.90
75430;DHT22;64127;51.488;5.462;2023-08-20T09:43:48;27.10;84.30
75430;DHT22;64127;51.488;5.462;2023-08-20T09:46:26;27.10;82.90
75430;DHT22;64127;51.488;5.462;2023-08-20T09:48:59;27.20;81.60
75430;DHT22;64127;51.488;5.462;2023-08-20T09:51:41;27.20;80.60
75430;DHT22;64127;51.488;5.462;2023-08-20T09:54:23;27.30;79.10
75430;DHT22;64127;51.488;5.462;2023-08-20T09:57:04;27.30;78.90
75430;DHT22;64127;51.488;5.462;2023-08-20T09:59:42;27.30;79.30
75430;DHT22;64127;51.488;5.462;2023-08-20T10:02:16;27.30;80.20
75430;DHT22;64127;51.488;5.462;2023-08-20T10:04:49;27.30;81.10
75430;DHT22;64127;51.488;5.462;2023-08-20T10:07:23;27.50;81.70
75430;DHT22;64127;51.488;5.462;2023-08-20T10:10:01;27.60;81.80
75430;DHT22;64127;51.488;5.462;2023-08-20T10:12:36;27.70;81.30
75430;DHT22;64127;51.488;5.462;2023-08-20T10:15:12;27.80;81.20
75430;DHT22;64127;51.488;5.462;2023-08-20T10:17:45;27.90;81.60
75430;DHT22;64127;51.488;5.462;2023-08-20T10:20:18;27.90;81.70
75430;DHT22;64127;51.488;5.462;2023-08-20T10:22:51;27.90;81.00
75430;DHT22;64127;51.488;5.462;2023-08-20T10:25:24;27.90;80.90
75430;DHT22;64127;51.488;5.462;2023-08-20T10:28:21;27.90;81.40
75430;DHT22;64127;51.488;5.462;2023-08-20T10:31:16;27.90;81.70
75430;DHT22;64127;51.488;5.462;2023-08-20T10:33:56;28.10;82.30
75430;DHT22;64127;51.488;5.462;2023-08-20T10:36:29;28.10;80.80
75430;DHT22;64127;51.488;5.462;2023-08-20T10:39:05;28.10;79.60
75430;DHT22;64127;51.488;5.462;2023-08-20T10:41:37;28.10;79.00
75430;DHT22;64127;51.488;5.462;2023-08-20T10:44:09;28.00;79.50
75430;DHT22;64127;51.488;5.462;2023-08-20T10:46:49;28.10;79.40
75430;DHT22;64127;51.488;5.462;2023-08-20T10:49:27;28.10;78.10
75430;DHT22;64127;51.488;5.462;2023-08-20T10:52:07;28.10;77.60
75430;DHT22;64127;51.488;5.462;2023-08-20T10:54:39;28.20;77.10
75430;DHT22;64127;51.488;5.462;2023-08-20T10:57:11;28.10;76.10
75430;DHT22;64127;51.488;5.462;2023-08-20T10:59:43;28.10;76.10
75430;DHT22;64127;51.488;5.462;2023-08-20T11:02:16;28.20;76.10
75430;DHT22;64127;51.488;5.462;2023-08-20T11:04:48;28.30;75.60
75430;DHT22;64127;51.488;5.462;2023-08-20T11:07:23;28.40;75.00
75430;DHT22;64127;51.488;5.462;2023-08-20T11:09:58;28.50;75.10
75430;DHT22;64127;51.488;5.462;2023-08-20T11:12:33;28.50;74.20
75430;DHT22;64127;51.488;5.462;2023-08-20T11:15:07;28.50;73.60
75430;DHT22;64127;51.488;5.462;2023-08-20T11:17:44;28.60;73.50
75430;DHT22;64127;51.488;5.462;2023-08-20T11:20:21;28.60;73.50
75430;DHT22;64127;51.488;5.462;2023-08-20T11:22:56;28.70;73.40
75430;DHT22;64127;51.488;5.462;2023-08-20T11:25:29;28.80;73.40
75430;DHT22;64127;51.488;5.462;2023-08-20T11:28:04;28.90;73.00
75430;DHT22;64127;51.488;5.462;2023-08-20T11:30:37;28.90;72.70
75430;DHT22;64127;51.488;5.462;2023-08-20T11:33:09;29.10;72.20
75430;DHT22;64127;51.488;5.462;2023-08-20T11:35:45;29.10;71.20
75430;DHT22;64127;51.488;5.462;2023-08-20T11:38:20;29.10;69.90
75430;DHT22;64127;51.488;5.462;2023-08-20T11:40:59;29.00;69.20
75430;DHT22;64127;51.488;5.462;2023-08-20T11:46:59;28.90;68.90
75430;DHT22;64127;51.488;5.462;2023-08-20T11:49:44;28.90;69.00
75430;DHT22;64127;51.488;5.462;2023-08-20T11:52:26;29.00;69.20
75430;DHT22;64127;51.488;5.462;2023-08-20T11:54:59;29.10;69.20
75430;DHT22;64127;51.488;5.462;2023-08-20T11:57:52;29.00;68.50
75430;DHT22;64127;51.488;5.462;2023-08-20T12:00:30;29.00;68.00
75430;DHT22;64127;51.488;5.462;2023-08-20T12:03:08;28.90;68.40
75430;DHT22;64127;51.488;5.462;2023-08-20T12:05:47;29.00;69.20
75430;DHT22;64127;51.488;5.462;2023-08-20T12:08:55;29.00;69.50
75430;DHT22;64127;51.488;5.462;2023-08-20T12:11:50;29.20;69.40
75430;DHT22;64127;51.488;5.462;2023-08-20T12:15:03;29.40;69.20
75430;DHT22;64127;51.488;5.462;2023-08-20T12:18:20;29.50;68.90
75430;DHT22;64127;51.488;5.462;2023-08-20T12:21:14;29.60;68.50
75430;DHT22;64127;51.488;5.462;2023-08-20T12:23:47;29.80;68.20
75430;DHT22;64127;51.488;5.462;2023-08-20T12:26:24;29.80;67.70
75430;DHT22;64127;51.488;5.462;2023-08-20T12:28:58;29.90;67.20
75430;DHT22;64127;51.488;5.462;2023-08-20T12:31:50;29.90;67.00
75430;DHT22;64127;51.488;5.462;2023-08-20T12:35:37;30.00;66.80
75430;DHT22;64127;51.488;5.462;2023-08-20T12:38:40;30.00;65.90
75430;DHT22;64127;51.488;5.462;2023-08-20T12:41:23;30.10;66.00
75430;DHT22;64127;51.488;5.462;2023-08-20T12:44:23;30.10;65.60
75430;DHT22;64127;51.488;5.462;2023-08-20T12:47:03;30.20;65.90
75430;DHT22;64127;51.488;5.462;2023-08-20T12:49:39;30.40;65.80
75430;DHT22;64127;51.488;5.462;2023-08-20T12:52:14;30.40;65.20
75430;DHT22;64127;51.488;5.462;2023-08-20T12:54:52;30.40;65.30
75430;DHT22;64127;51.488;5.462;2023-08-20T12:57:39;30.60;65.10
75430;DHT22;64127;51.488;5.462;2023-08-20T13:00:32;30.70;64.90
75430;DHT22;64127;51.488;5.462;2023-08-20T13:03:08;30.70;64.80
75430;DHT22;64127;51.488;5.462;2023-08-20T13:05:41;30.70;64.60
75430;DHT22;64127;51.488;5.462;2023-08-20T13:08:17;30.80;64.80
75430;DHT22;64127;51.488;5.462;2023-08-20T13:10:57;30.90;64.90
75430;DHT22;64127;51.488;5.462;2023-08-20T13:13:32;30.90;64.60
75430;DHT22;64127;51.488;5.462;2023-08-20T13:16:06;31.00;64.40
75430;DHT22;64127;51.488;5.462;2023-08-20T13:18:41;31.00;63.70
75430;DHT22;64127;51.488;5.462;2023-08-20T13:21:17;31.00;64.40
75430;DHT22;64127;51.488;5.462;2023-08-20T13:23:49;31.00;63.50
75430;DHT22;64127;51.488;5.462;2023-08-20T13:26:21;31.00;63.10
75430;DHT22;64127;51.488;5.462;2023-08-20T13:28:56;30.90;63.00
75430;DHT22;64127;51.488;5.462;2023-08-20T13:31:28;30.90;63.60
75430;DHT22;64127;51.488;5.462;2023-08-20T13:34:01;31.00;64.00
75430;DHT22;64127;51.488;5.462;2023-08-20T13:36:33;31.10;64.30
75430;DHT22;64127;51.488;5.462;2023-08-20T13:39:09;31.10;64.00
75430;DHT22;64127;51.488;5.462;2023-08-20T13:41:46;31.20;63.70
75430;DHT22;64127;51.488;5.462;2023-08-20T13:44:20;31.20;63.30
75430;DHT22;64127;51.488;5.462;2023-08-20T13:46:55;31.30;63.40
75430;DHT22;64127;51.488;5.462;2023-08-20T13:49:27;31.30;63.40
75430;DHT22;64127;51.488;5.462;2023-08-20T13:51:59;31.40;63.20
75430;DHT22;64127;51.488;5.462;2023-08-20T13:54:35;31.50;63.20
75430;DHT22;64127;51.488;5.462;2023-08-20T13:57:08;31.60;62.80
75430;DHT22;64127;51.488;5.462;2023-08-20T13:59:40;31.70;62.40
75430;DHT22;64127;51.488;5.462;2023-08-20T14:02:33;31.80;62.00
75430;DHT22;64127;51.488;5.462;2023-08-20T14:05:09;31.80;61.60
75430;DHT22;64127;51.488;5.462;2023-08-20T14:07:43;31.80;61.50
75430;DHT22;64127;51.488;5.462;2023-08-20T14:10:16;31.80;61.30
75430;DHT22;64127;51.488;5.462;2023-08-20T14:12:50;31.90;61.40
75430;DHT22;64127;51.488;5.462;2023-08-20T14:15:26;32.00;61.40
75430;DHT22;64127;51.488;5.462;2023-08-20T14:18:04;32.00;60.60
75430;DHT22;64127;51.488;5.462;2023-08-20T14:20:46;31.80;60.50
75430;DHT22;64127;51.488;5.462;2023-08-20T14:23:20;31.70;61.40
75430;DHT22;64127;51.488;5.462;2023-08-20T14:25:55;31.60;61.20
75430;DHT22;64127;51.488;5.462;2023-08-20T14:28:27;31.60;61.00
75430;DHT22;64127;51.488;5.462;2023-08-20T14:31:03;31.70;61.30
75430;DHT22;64127;51.488;5.462;2023-08-20T14:33:36;31.80;61.50
75430;DHT22;64127;51.488;5.462;2023-08-20T14:36:08;32.00;61.10
75430;DHT22;64127;51.488;5.462;2023-08-20T14:38:41;32.20;60.60
75430;DHT22;64127;51.488;5.462;2023-08-20T14:41:14;32.40;60.70
75430;DHT22;64127;51.488;5.462;2023-08-20T14:43:46;32.40;60.80
75430;DHT22;64127;51.488;5.462;2023-08-20T14:46:18;32.50;60.70
75430;DHT22;64127;51.488;5.462;2023-08-20T14:48:50;32.40;60.50
75430;DHT22;64127;51.488;5.462;2023-08-20T14:51:23;32.20;61.10
75430;DHT22;64127;51.488;5.462;2023-08-20T14:53:59;32.00;60.90
75430;DHT22;64127;51.488;5.462;2023-08-20T14:56:36;31.80;60.70
75430;DHT22;64127;51.488;5.462;2023-08-20T14:59:11;31.70;61.10
75430;DHT22;64127;51.488;5.462;2023-08-20T15:01:47;31.50;61.60
75430;DHT22;64127;51.488;5.462;2023-08-20T15:04:19;31.40;61.30
75430;DHT22;64127;51.488;5.462;2023-08-20T15:06:54;31.30;61.30
75430;DHT22;64127;51.488;5.462;2023-08-20T15:09:36;31.20;61.30
75430;DHT22;64127;51.488;5.462;2023-08-20T15:12:12;31.10;61.40
75430;DHT22;64127;51.488;5.462;2023-08-20T15:14:50;30.90;61.30
75430;DHT22;64127;51.488;5.462;2023-08-20T15:17:22;30.50;61.80
75430;DHT22;64127;51.488;5.462;2023-08-20T15:19:58;30.30;62.30
75430;DHT22;64127;51.488;5.462;2023-08-20T15:22:33;30.10;62.80
75430;DHT22;64127;51.488;5.462;2023-08-20T15:25:06;29.90;63.30
75430;DHT22;64127;51.488;5.462;2023-08-20T15:27:42;29.90;64.00
75430;DHT22;64127;51.488;5.462;2023-08-20T15:30:15;29.80;64.40
75430;DHT22;64127;51.488;5.462;2023-08-20T15:32:51;29.80;64.80
75430;DHT22;64127;51.488;5.462;2023-08-20T15:35:29;29.70;65.30
75430;DHT22;64127;51.488;5.462;2023-08-20T15:38:04;29.80;66.00
75430;DHT22;64127;51.488;5.462;2023-08-20T15:40:39;29.80;66.00
75430;DHT22;64127;51.488;5.462;2023-08-20T15:43:14;29.80;66.00
75430;DHT22;64127;51.488;5.462;2023-08-20T15:45:47;29.90;66.20
75430;DHT22;64127;51.488;5.462;2023-08-20T15:48:19;29.80;66.00
75430;DHT22;64127;51.488;5.462;2023-08-20T15:50:58;29.70;65.80
75430;DHT22;64127;51.488;5.462;2023-08-20T15:53:30;29.50;66.60
75430;DHT22;64127;51.488;5.462;2023-08-20T15:56:05;29.40;66.80
75430;DHT22;64127;51.488;5.462;2023-08-20T15:58:42;29.50;67.00
75430;DHT22;64127;51.488;5.462;2023-08-20T16:01:21;29.60;67.50
75430;DHT22;64127;51.488;5.462;2023-08-20T16:03:54;29.80;67.60
75430;DHT22;64127;51.488;5.462;2023-08-20T16:06:39;29.90;68.30
75430;DHT22;64127;51.488;5.462;2023-08-20T16:09:12;30.10;67.40
75430;DHT22;64127;51.488;5.462;2023-08-20T16:11:44;30.30;67.20
75430;DHT22;64127;51.488;5.462;2023-08-20T16:14:19;30.40;66.80
75430;DHT22;64127;51.488;5.462;2023-08-20T16:16:52;30.40;66.40
75430;DHT22;64127;51.488;5.462;2023-08-20T16:19:38;30.50;66.10
75430;DHT22;64127;51.488;5.462;2023-08-20T16:22:27;30.40;65.80
75430;DHT22;64127;51.488;5.462;2023-08-20T16:25:04;30.40;65.90
75430;DHT22;64127;51.488;5.462;2023-08-20T16:27:37;30.30;66.30
75430;DHT22;64127;51.488;5.462;2023-08-20T16:30:14;30.20;66.40
75430;DHT22;64127;51.488;5.462;2023-08-20T16:32:48;30.30;66.40
75430;DHT22;64127;51.488;5.462;2023-08-20T16:35:21;30.30;66.10
75430;DHT22;64127;51.488;5.462;2023-08-20T16:37:53;30.30;65.80
75430;DHT22;64127;51.488;5.462;2023-08-20T16:40:26;30.30;66.30
75430;DHT22;64127;51.488;5.462;2023-08-20T16:42:59;30.40;66.50